Time;durP1;ratioP1;P1;durP2;ratioP2;P2;SDS_P1;SDS_P2;PMS_P1;PMS_P2;Temp;Humidity;BMP_temperature;BMP_pressure;BME280_temperature;BME280_humidity;BME280_pressure;Samples;Min_cycle;Max_cycle;Signal;HPM_P1;HPM_P2
2021/08/17 00:01:22;;;;;;;0.50;0.50;;;26.80;72.90;;;;;;5013592;28;20014;-77
2021/08/17 00:03:47;;;;;;;0.68;0.68;;;26.90;73.10;;;;;;5031052;28;20042;-78
2021/08/17 00:06:13;;;;;;;0.98;0.88;;;27.00;72.70;;;;;;5013673;28;20033;-77
2021/08/17 00:08:39;;;;;;;0.50;0.50;;;27.10;72.20;;;;;;5031440;28;20033;-78
2021/08/17 00:11:04;;;;;;;1.90;1.27;;;27.10;72.40;;;;;;5031670;28;20512;-78
2021/08/17 00:13:31;;;;;;;0.50;0.50;;;27.00;72.30;;;;;;5031140;28;20389;-76
2021/08/17 00:15:56;;;;;;;1.45;1.08;;;27.00;73.10;;;;;;5031353;28;20473;-77
2021/08/17 00:18:22;;;;;;;3.10;0.85;;;27.10;72.90;;;;;;5013531;28;20128;-76
2021/08/17 00:20:48;;;;;;;0.73;0.73;;;27.00;73.30;;;;;;5031628;28;20081;-75
2021/08/17 00:23:14;;;;;;;0.55;0.55;;;27.00;73.30;;;;;;5013188;28;20038;-77
2021/08/17 00:25:43;;;;;;;0.80;0.80;;;26.90;73.90;;;;;;5031293;28;20025;-77
2021/08/17 00:28:10;;;;;;;0.50;0.50;;;26.80;74.30;;;;;;5029697;28;20043;-78
2021/08/17 00:30:36;;;;;;;0.60;0.60;;;26.80;74.40;;;;;;5028090;28;20022;-76
2021/08/17 00:33:03;;;;;;;0.85;0.82;;;26.70;74.90;;;;;;5030978;28;20017;-77
2021/08/17 00:35:29;;;;;;;0.95;0.95;;;26.70;75.30;;;;;;5012207;28;20033;-78
2021/08/17 00:37:55;;;;;;;1.35;1.15;;;26.70;75.00;;;;;;5029901;28;20033;-77
2021/08/17 00:40:20;;;;;;;3.20;1.05;;;26.60;75.80;;;;;;5030225;28;20420;-78
2021/08/17 00:42:48;;;;;;;0.77;0.77;;;26.80;74.90;;;;;;5030044;28;20107;-77
2021/08/17 00:45:20;;;;;;;0.60;0.60;;;26.80;75.50;;;;;;5027793;28;20017;-78
2021/08/17 00:47:46;;;;;;;16.58;1.05;;;26.80;75.90;;;;;;5030526;28;20040;-77
2021/08/17 00:50:12;;;;;;;1.05;0.98;;;26.80;75.90;;;;;;5030705;28;20104;-77
2021/08/17 00:52:39;;;;;;;1.08;1.02;;;26.80;76.20;;;;;;5029899;28;20095;-77
2021/08/17 00:55:06;;;;;;;0.60;0.60;;;26.60;75.80;;;;;;5030075;28;20104;-78
2021/08/17 00:57:32;;;;;;;1.00;0.82;;;26.60;76.50;;;;;;5030104;28;20488;-78
2021/08/17 00:59:58;;;;;;;1.48;1.10;;;26.70;76.50;;;;;;5030192;28;20030;-77
2021/08/17 01:02:24;;;;;;;0.50;0.50;;;26.70;76.80;;;;;;5029989;28;20670;-77
2021/08/17 01:04:49;;;;;;;0.90;0.85;;;26.70;77.20;;;;;;5029920;28;20087;-78
2021/08/17 01:07:15;;;;;;;1.00;0.95;;;26.80;76.20;;;;;;5029815;28;20021;-77
2021/08/17 01:09:44;;;;;;;0.50;0.50;;;26.80;76.70;;;;;;5030077;28;20029;-78
2021/08/17 01:12:10;;;;;;;0.70;0.70;;;26.70;76.60;;;;;;5030128;28;20052;-78
2021/08/17 01:14:36;;;;;;;0.50;0.50;;;26.70;77.20;;;;;;5029734;28;20087;-78
2021/08/17 01:17:02;;;;;;;0.60;0.60;;;26.70;76.90;;;;;;5013008;28;20379;-77
2021/08/17 01:19:28;;;;;;;1.65;1.17;;;26.80;77.10;;;;;;5030430;28;20561;-79
2021/08/17 01:21:54;;;;;;;0.60;0.60;;;26.40;79.30;;;;;;5012269;28;20543;-79
2021/08/17 01:24:20;;;;;;;1.27;1.17;;;26.50;80.10;;;;;;5021624;28;20509;-79
2021/08/17 01:26:47;;;;;;;0.98;0.98;;;26.50;79.50;;;;;;5010580;28;20033;-79
2021/08/17 01:29:15;;;;;;;0.70;0.70;;;26.50;79.40;;;;;;5010616;28;20030;-80
2021/08/17 01:31:42;;;;;;;0.60;0.60;;;26.60;79.10;;;;;;4992973;28;20030;-75
2021/08/17 01:34:07;;;;;;;0.50;0.50;;;26.70;78.40;;;;;;4992792;28;20528;-77
2021/08/17 01:36:34;;;;;;;0.60;0.60;;;26.70;79.00;;;;;;5010573;28;20041;-77
2021/08/17 01:39:00;;;;;;;0.40;0.40;;;26.70;78.80;;;;;;5010703;28;20029;-75
2021/08/17 01:41:26;;;;;;;0.50;0.50;;;26.70;78.60;;;;;;5009901;28;20109;-80
2021/08/17 01:43:52;;;;;;;0.90;0.82;;;26.80;77.90;;;;;;4992675;28;20125;-77
2021/08/17 01:46:18;;;;;;;0.70;0.70;;;26.70;78.00;;;;;;5010439;28;20033;-76
2021/08/17 01:48:45;;;;;;;0.70;0.70;;;26.70;78.30;;;;;;5010548;28;20037;-75
2021/08/17 01:51:11;;;;;;;1.42;1.15;;;26.70;79.00;;;;;;4994489;28;20084;-77
2021/08/17 01:53:38;;;;;;;1.13;1.02;;;26.60;79.30;;;;;;4996773;28;20385;-78
2021/08/17 01:56:08;;;;;;;0.50;0.50;;;26.40;77.70;;;;;;5014132;28;20030;-77
2021/08/17 01:58:34;;;;;;;;;;;26.60;76.10;;;;;;5023272;28;20151;-78
2021/08/17 02:01:00;;;;;;;4.00;1.67;;;26.50;75.90;;;;;;5033588;28;19996;-77
2021/08/17 02:03:26;;;;;;;1.33;1.23;;;26.50;75.50;;;;;;5024888;28;20069;-75
2021/08/17 02:05:51;;;;;;;0.50;0.50;;;26.40;75.60;;;;;;5017094;28;20056;-77
2021/08/17 02:08:17;;;;;;;1.13;1.02;;;25.50;77.20;;;;;;5033747;28;20041;-77
2021/08/17 02:10:43;;;;;;;0.70;0.70;;;25.80;77.30;;;;;;5033018;28;20045;-77
2021/08/17 02:13:08;;;;;;;1.23;1.13;;;26.20;76.20;;;;;;5033735;28;20116;-76
2021/08/17 02:15:34;;;;;;;1.05;0.98;;;26.30;75.40;;;;;;5032251;28;20556;-78
2021/08/17 02:18:00;;;;;;;0.60;0.60;;;26.20;75.90;;;;;;5013842;28;20084;-79
2021/08/17 02:20:26;;;;;;;6.30;3.88;;;25.90;76.40;;;;;;4996275;28;20149;-76
2021/08/17 02:22:52;;;;;;;0.88;0.85;;;25.90;76.20;;;;;;5013449;28;20437;-76
2021/08/17 02:25:18;;;;;;;0.95;0.90;;;25.90;76.50;;;;;;5009883;28;20034;-76
2021/08/17 02:27:44;;;;;;;0.88;0.85;;;26.10;75.20;;;;;;5018608;28;20026;-77
2021/08/17 02:30:10;;;;;;;1.48;1.38;;;26.10;74.40;;;;;;5033493;28;20029;-76
2021/08/17 02:32:36;;;;;;;0.82;0.82;;;25.40;75.60;;;;;;5014774;28;20075;-77
2021/08/17 02:35:02;;;;;;;0.60;0.60;;;24.80;76.90;;;;;;5014677;28;20037;-78
2021/08/17 02:37:28;;;;;;;0.95;0.95;;;24.60;78.30;;;;;;5033461;28;20088;-78
2021/08/17 02:39:54;;;;;;;0.55;0.55;;;24.40;79.00;;;;;;5014731;28;20033;-77
2021/08/17 02:42:20;;;;;;;0.93;0.93;;;24.40;79.20;;;;;;5033160;28;20060;-77
2021/08/17 02:44:45;;;;;;;1.88;1.77;;;24.60;79.00;;;;;;5033401;28;20378;-78
2021/08/17 02:47:11;;;;;;;0.70;0.70;;;24.80;79.00;;;;;;5015286;28;20041;-77
2021/08/17 02:49:37;;;;;;;0.60;0.60;;;25.30;78.20;;;;;;5015446;28;20040;-77
2021/08/17 02:52:04;;;;;;;1.35;1.25;;;25.40;77.40;;;;;;5033188;28;20298;-79
2021/08/17 02:54:35;;;;;;;1.48;1.25;;;25.10;76.60;;;;;;5032908;28;20466;-77
2021/08/17 02:57:00;;;;;;;1.13;1.05;;;24.50;78.60;;;;;;5033146;28;20116;-78
2021/08/17 02:59:26;;;;;;;1.90;1.80;;;24.60;79.60;;;;;;5033102;28;20446;-77
2021/08/17 03:01:52;;;;;;;5.80;1.52;;;24.90;77.30;;;;;;5032679;28;20139;-75
2021/08/17 03:04:18;;;;;;;1.42;1.33;;;25.10;77.50;;;;;;5032738;28;20038;-76
2021/08/17 03:06:43;;;;;;;0.68;0.68;;;25.20;76.00;;;;;;5032662;28;20477;-76
2021/08/17 03:09:09;;;;;;;0.98;0.90;;;24.80;76.50;;;;;;5032856;28;20078;-81
2021/08/17 03:11:35;;;;;;;0.80;0.80;;;24.30;78.50;;;;;;5032305;28;20064;-77
2021/08/17 03:14:01;;;;;;;0.75;0.75;;;24.20;79.80;;;;;;5033150;28;20120;-79
2021/08/17 03:16:26;;;;;;;1.33;1.05;;;24.40;79.40;;;;;;5033026;28;20393;-79
2021/08/17 03:18:52;;;;;;;1.10;1.00;;;24.00;80.60;;;;;;5014438;28;20392;-81
2021/08/17 03:21:22;;;;;;;1.00;0.98;;;23.70;82.10;;;;;;5032649;28;20033;-78
2021/08/17 03:23:47;;;;;;;0.93;0.93;;;23.50;83.40;;;;;;5032863;28;20456;-77
2021/08/17 03:26:13;;;;;;;1.50;1.38;;;23.60;84.00;;;;;;5014482;28;20493;-77
2021/08/17 03:28:39;;;;;;;1.25;0.90;;;24.20;82.90;;;;;;5031943;28;20029;-76
2021/08/17 03:31:05;;;;;;;1.27;1.17;;;24.60;81.20;;;;;;5032856;28;20053;-77
2021/08/17 03:33:32;;;;;;;0.70;0.70;;;24.90;80.00;;;;;;5032117;28;20473;-76
2021/08/17 03:35:58;;;;;;;1.98;1.83;;;24.80;79.80;;;;;;5032167;28;20088;-76
2021/08/17 03:38:24;;;;;;;0.77;0.77;;;24.60;80.20;;;;;;5014182;28;20038;-76
2021/08/17 03:40:50;;;;;;;0.73;0.68;;;25.00;80.00;;;;;;5032030;28;20048;-76
2021/08/17 03:43:16;;;;;;;1.02;1.02;;;24.90;80.60;;;;;;5031868;28;20029;-77
2021/08/17 03:45:41;;;;;;;1.25;1.00;;;25.00;79.50;;;;;;5032091;28;20049;-77
2021/08/17 03:48:07;;;;;;;0.70;0.70;;;24.50;80.80;;;;;;5031450;28;20021;-76
2021/08/17 03:50:33;;;;;;;1.02;0.95;;;24.60;80.40;;;;;;5031949;28;20049;-76
2021/08/17 03:52:59;;;;;;;0.70;0.70;;;24.90;79.30;;;;;;5032066;28;20060;-76
2021/08/17 03:55:25;;;;;;;0.73;0.73;;;25.10;79.80;;;;;;5014131;28;20191;-78
2021/08/17 03:57:50;;;;;;;1.55;1.45;;;24.20;80.70;;;;;;5031087;28;20026;-76
2021/08/17 04:00:20;;;;;;;1.60;1.50;;;24.40;81.70;;;;;;5031935;28;20021;-77
2021/08/17 04:02:46;;;;;;;0.75;0.75;;;24.70;81.20;;;;;;5031784;28;20027;-77
2021/08/17 04:05:12;;;;;;;1.02;0.98;;;25.00;80.40;;;;;;5031448;28;20030;-77
2021/08/17 04:07:39;;;;;;;1.05;1.00;;;25.10;80.00;;;;;;5030949;28;20035;-77
2021/08/17 04:10:06;;;;;;;4.03;3.55;;;25.20;80.10;;;;;;5031725;28;20052;-77
2021/08/17 04:12:33;;;;;;;2.97;2.25;;;25.30;79.70;;;;;;5031112;28;20183;-78
2021/08/17 04:14:59;;;;;;;1.10;0.98;;;25.30;79.40;;;;;;5013298;28;20079;-77
2021/08/17 04:17:26;;;;;;;0.55;0.55;;;25.40;79.70;;;;;;5013570;28;20507;-76
2021/08/17 04:19:51;;;;;;;0.85;0.85;;;25.40;79.00;;;;;;5031111;28;20037;-77
2021/08/17 04:22:17;;;;;;;0.75;0.75;;;25.50;79.50;;;;;;5031071;28;20036;-77
2021/08/17 04:24:43;;;;;;;0.75;0.75;;;25.50;79.50;;;;;;5031002;28;20254;-76
2021/08/17 04:27:08;;;;;;;0.75;0.75;;;25.40;79.60;;;;;;5013238;28;20068;-76
2021/08/17 04:29:37;;;;;;;0.70;0.70;;;25.50;79.60;;;;;;5031265;28;20075;-77
2021/08/17 04:32:03;;;;;;;1.48;1.38;;;25.50;79.40;;;;;;5013421;28;20129;-77
2021/08/17 04:34:29;;;;;;;1.23;1.13;;;25.50;79.20;;;;;;5030631;28;20033;-76
2021/08/17 04:36:55;;;;;;;1.38;1.02;;;25.60;80.00;;;;;;5013161;28;20087;-78
2021/08/17 04:39:20;;;;;;;1.25;1.15;;;25.50;80.30;;;;;;5031053;28;20482;-78
2021/08/17 04:41:46;;;;;;;1.95;0.98;;;25.40;80.40;;;;;;5030789;28;20021;-80
2021/08/17 04:44:12;;;;;;;3.03;1.23;;;25.40;81.00;;;;;;5013035;28;20100;-77
2021/08/17 04:46:37;;;;;;;2.85;2.10;;;25.40;80.30;;;;;;5030750;28;20025;-79
2021/08/17 04:49:03;;;;;;;2.13;1.45;;;25.50;80.30;;;;;;5013027;28;20036;-77
2021/08/17 04:51:30;;;;;;;2.65;1.42;;;25.50;80.10;;;;;;5030373;28;20057;-78
2021/08/17 04:53:56;;;;;;;1.88;1.77;;;25.30;80.60;;;;;;5030875;28;20087;-77
2021/08/17 04:56:21;;;;;;;6.32;1.90;;;25.40;81.00;;;;;;5012607;28;20017;-79
2021/08/17 04:58:47;;;;;;;5.03;3.45;;;25.50;80.80;;;;;;5030148;28;20071;-76
2021/08/17 05:01:13;;;;;;;3.22;2.92;;;25.60;80.30;;;;;;5030682;28;20064;-78
2021/08/17 05:03:39;;;;;;;1.80;1.63;;;25.70;80.00;;;;;;5030112;28;20091;-76
2021/08/17 05:06:04;;;;;;;1.80;1.55;;;25.50;80.00;;;;;;5030691;28;20032;-78
2021/08/17 05:08:30;;;;;;;1.23;1.10;;;25.50;80.90;;;;;;5030214;28;20470;-77
2021/08/17 05:10:56;;;;;;;1.25;1.15;;;25.20;80.40;;;;;;5030236;28;20049;-77
2021/08/17 05:13:21;;;;;;;1.45;1.02;;;24.90;81.40;;;;;;5030229;28;20449;-77
2021/08/17 05:15:47;;;;;;;2.90;2.65;;;25.20;82.10;;;;;;5030340;28;20520;-79
2021/08/17 05:18:13;;;;;;;4.72;3.17;;;25.40;81.60;;;;;;5030270;28;20388;-80
2021/08/17 05:20:39;;;;;;;1.27;1.17;;;25.60;81.60;;;;;;5030623;28;20520;-81
2021/08/17 05:23:04;;;;;;;0.77;0.77;;;25.10;81.50;;;;;;5029529;28;20038;-77
2021/08/17 05:25:30;;;;;;;1.58;1.00;;;25.30;81.20;;;;;;5030265;28;20021;-80
2021/08/17 05:27:56;;;;;;;0.98;0.98;;;25.30;81.40;;;;;;5030154;28;20531;-77
2021/08/17 05:30:22;;;;;;;0.82;0.82;;;25.60;81.10;;;;;;5012244;28;20021;-77
2021/08/17 05:32:48;;;;;;;1.38;1.27;;;25.70;79.70;;;;;;5029612;28;20030;-80
2021/08/17 05:35:14;;;;;;;0.55;0.55;;;25.90;79.50;;;;;;5012787;28;20469;-78
2021/08/17 05:37:40;;;;;;;0.70;0.70;;;25.90;80.00;;;;;;5029552;28;20076;-79
2021/08/17 05:40:07;;;;;;;4.85;1.50;;;26.10;79.70;;;;;;5029913;28;20473;-77
2021/08/17 05:42:33;;;;;;;0.80;0.70;;;26.20;79.40;;;;;;5029952;28;20038;-78
2021/08/17 05:44:59;;;;;;;1.60;1.48;;;26.30;79.60;;;;;;5030040;28;20029;-78
2021/08/17 05:47:25;;;;;;;11.30;6.78;;;26.30;79.90;;;;;;5029732;28;20025;-78
2021/08/17 05:49:51;;;;;;;5.75;4.80;;;26.30;79.80;;;;;;5029799;28;20029;-80
2021/08/17 05:52:17;;;;;;;2.67;2.47;;;26.30;80.20;;;;;;5029657;28;20091;-78
2021/08/17 05:54:43;;;;;;;1.20;1.08;;;26.20;80.20;;;;;;5029956;28;20029;-80
2021/08/17 05:57:09;;;;;;;2.65;2.45;;;26.30;80.30;;;;;;5012325;28;20021;-79
2021/08/17 05:59:35;;;;;;;1.40;1.25;;;26.20;80.70;;;;;;5029265;28;20029;-80
2021/08/17 06:02:03;;;;;;;2.03;1.75;;;26.10;81.10;;;;;;5010174;28;20110;-77
2021/08/17 06:04:28;;;;;;;1.65;1.55;;;26.20;81.30;;;;;;5028747;28;20124;-76
2021/08/17 06:06:55;;;;;;;1.45;1.35;;;26.40;81.20;;;;;;5029473;28;20136;-79
2021/08/17 06:09:21;;;;;;;1.30;1.20;;;26.40;80.30;;;;;;5029743;28;20613;-79
2021/08/17 06:11:48;;;;;;;0.80;0.80;;;26.20;80.90;;;;;;5029562;28;20053;-79
2021/08/17 06:14:15;;;;;;;0.50;0.50;;;26.30;80.30;;;;;;5029933;28;20655;-76
2021/08/17 06:16:41;;;;;;;0.93;0.82;;;26.30;80.60;;;;;;5011932;28;20061;-79
2021/08/17 06:19:07;;;;;;;1.73;1.63;;;26.20;80.10;;;;;;5029388;28;20022;-79
2021/08/17 06:21:34;;;;;;;1.48;1.38;;;26.20;80.10;;;;;;5011909;28;20025;-78
2021/08/17 06:24:01;;;;;;;1.85;1.60;;;26.30;80.80;;;;;;5029280;28;20033;-76
2021/08/17 06:26:27;;;;;;;1.25;1.15;;;26.40;80.70;;;;;;5030033;28;20446;-77
2021/08/17 06:28:53;;;;;;;2.15;1.95;;;26.40;80.40;;;;;;5029626;28;20096;-77
2021/08/17 06:31:23;;;;;;;1.58;1.48;;;26.50;80.60;;;;;;5011604;28;20026;-79
2021/08/17 06:33:57;;;;;;;1.67;1.58;;;26.50;80.60;;;;;;5029296;28;20033;-77
2021/08/17 06:36:23;;;;;;;1.05;1.00;;;26.60;80.40;;;;;;5029734;28;20044;-75
2021/08/17 06:38:50;;;;;;;2.25;2.05;;;26.60;80.60;;;;;;5015133;28;20183;-78
2021/08/17 06:41:16;;;;;;;2.22;1.55;;;26.70;81.30;;;;;;5032876;28;20057;-78
2021/08/17 06:43:42;;;;;;;1.25;1.15;;;26.80;80.50;;;;;;5032951;28;20043;-79
2021/08/17 06:46:09;;;;;;;1.88;1.73;;;26.80;80.80;;;;;;5015499;28;20029;-79
2021/08/17 06:48:34;;;;;;;1.15;1.08;;;26.80;80.60;;;;;;5032865;28;20056;-78
2021/08/17 06:51:01;;;;;;;1.83;1.65;;;26.80;81.60;;;;;;5033585;28;20064;-77
2021/08/17 06:53:27;;;;;;;1.20;0.95;;;27.00;81.50;;;;;;5032957;28;20136;-79
2021/08/17 06:55:52;;;;;;;0.55;0.55;;;27.00;81.80;;;;;;5032995;28;20105;-76
2021/08/17 06:58:18;;;;;;;1.35;1.25;;;27.00;81.60;;;;;;5032966;28;20440;-79
2021/08/17 07:00:46;;;;;;;0.80;0.80;;;27.10;80.90;;;;;;5015091;28;20025;-78
2021/08/17 07:03:13;;;;;;;0.85;0.75;;;27.20;80.80;;;;;;5032844;28;20501;-78
2021/08/17 07:05:42;;;;;;;2.50;1.65;;;27.20;80.60;;;;;;5033434;28;20389;-81
2021/08/17 07:08:08;;;;;;;1.50;1.10;;;27.30;80.70;;;;;;5032315;28;20029;-77
2021/08/17 07:10:35;;;;;;;0.63;0.63;;;27.20;81.20;;;;;;5032814;28;20036;-79
2021/08/17 07:13:01;;;;;;;0.70;0.70;;;27.30;80.40;;;;;;5032842;28;20025;-77
2021/08/17 07:15:27;;;;;;;1.15;1.08;;;27.30;80.40;;;;;;5032744;28;20029;-80
2021/08/17 07:17:52;;;;;;;2.88;1.95;;;27.30;79.70;;;;;;5032231;28;20513;-80
2021/08/17 07:20:19;;;;;;;0.73;0.73;;;27.40;79.80;;;;;;5032130;28;20033;-76
2021/08/17 07:22:44;;;;;;;1.10;1.05;;;27.30;80.70;;;;;;5032138;28;20033;-78
2021/08/17 07:25:11;;;;;;;2.00;1.75;;;27.50;80.40;;;;;;5014263;28;20033;-81
2021/08/17 07:27:37;;;;;;;6.63;1.50;;;27.40;80.90;;;;;;5032036;28;20036;-78
2021/08/17 07:30:12;;;;;;;0.55;0.55;;;27.40;81.60;;;;;;5014279;28;20022;-77
2021/08/17 07:32:42;;;;;;;1.75;1.05;;;27.40;81.30;;;;;;5032333;28;20075;-77
2021/08/17 07:35:09;;;;;;;;;;;27.50;81.60;;;;;;5032751;28;20096;-77
2021/08/17 07:37:35;;;;;;;0.55;0.50;;;27.60;81.30;;;;;;5031957;28;19913;-78
2021/08/17 07:40:02;;;;;;;1.83;1.50;;;27.60;81.00;;;;;;5032375;28;20535;-80
2021/08/17 07:42:28;;;;;;;0.80;0.80;;;27.70;81.20;;;;;;5032086;28;20033;-78
2021/08/17 07:44:54;;;;;;;0.93;0.80;;;27.70;81.50;;;;;;5031967;28;20056;-76
2021/08/17 07:47:20;;;;;;;3.67;0.93;;;27.60;80.80;;;;;;5031413;28;20480;-79
2021/08/17 07:49:45;;;;;;;0.50;0.50;;;27.60;80.80;;;;;;5031040;28;20048;-77
2021/08/17 07:52:11;;;;;;;0.73;0.73;;;27.70;81.30;;;;;;5031801;28;20033;-81
2021/08/17 07:54:37;;;;;;;0.40;0.40;;;27.70;81.20;;;;;;5031841;28;20021;-82
2021/08/17 07:57:04;;;;;;;0.95;0.80;;;27.80;82.20;;;;;;5031821;28;20029;-79
2021/08/17 07:59:29;;;;;;;1.30;0.85;;;27.90;81.70;;;;;;5031426;28;20022;-76
2021/08/17 08:01:55;;;;;;;0.50;0.50;;;27.90;82.40;;;;;;5014614;28;20048;-80
2021/08/17 08:04:21;;;;;;;0.77;0.77;;;27.90;83.80;;;;;;5032134;28;20504;-81
2021/08/17 08:06:47;;;;;;;1.10;0.80;;;28.00;82.70;;;;;;5031652;28;20076;-80
2021/08/17 08:09:12;;;;;;;1.65;1.30;;;28.10;82.20;;;;;;5031662;28;20104;-77
2021/08/17 08:11:38;;;;;;;1.95;1.20;;;28.00;82.20;;;;;;5031314;28;20776;-78
2021/08/17 08:14:04;;;;;;;0.50;0.50;;;27.90;82.20;;;;;;5031439;28;20037;-76
2021/08/17 08:16:29;;;;;;;0.47;0.40;;;28.00;81.50;;;;;;5013381;28;20025;-75
2021/08/17 08:18:55;;;;;;;2.05;1.35;;;28.10;81.50;;;;;;5031043;28;20037;-81
2021/08/17 08:21:21;;;;;;;0.40;0.40;;;28.10;81.40;;;;;;5031142;28;20026;-77
2021/08/17 08:23:47;;;;;;;2.45;1.17;;;28.30;81.10;;;;;;5013559;28;20042;-77
2021/08/17 08:26:12;;;;;;;1.02;0.93;;;28.40;80.90;;;;;;5030830;28;20040;-79
2021/08/17 08:28:38;;;;;;;1.40;1.02;;;28.40;80.90;;;;;;5031231;28;20099;-77
2021/08/17 08:31:04;;;;;;;1.42;1.08;;;28.50;80.90;;;;;;5031467;28;20029;-78
2021/08/17 08:33:30;;;;;;;1.25;1.15;;;28.50;80.10;;;;;;5030855;28;20029;-84
2021/08/17 08:35:56;;;;;;;0.80;0.60;;;28.50;80.00;;;;;;5030802;28;20124;-81
2021/08/17 08:38:22;;;;;;;0.40;0.40;;;28.60;80.00;;;;;;5031104;28;20579;-79
2021/08/17 08:40:50;;;;;;;0.60;0.60;;;28.80;78.50;;;;;;5013089;28;20037;-76
2021/08/17 08:43:20;;;;;;;0.70;0.70;;;28.90;77.60;;;;;;5012691;28;20033;-86
2021/08/17 08:45:47;;;;;;;1.17;0.88;;;28.80;75.70;;;;;;5013065;28;20044;-80
2021/08/17 08:48:14;;;;;;;0.68;0.68;;;28.80;76.40;;;;;;5012684;28;20116;-77
2021/08/17 08:50:44;;;;;;;0.98;0.75;;;29.00;76.00;;;;;;5030476;28;20056;-76
2021/08/17 08:53:12;;;;;;;0.98;0.88;;;29.10;75.60;;;;;;5030753;28;20098;-78
2021/08/17 08:55:38;;;;;;;0.60;0.60;;;29.20;75.50;;;;;;5030582;28;20363;-78
2021/08/17 08:58:03;;;;;;;0.82;0.65;;;29.30;74.90;;;;;;5030582;28;20523;-79
2021/08/17 09:00:29;;;;;;;0.55;0.55;;;29.50;73.70;;;;;;5030210;28;20504;-82
2021/08/17 09:02:55;;;;;;;0.95;0.60;;;29.70;73.80;;;;;;5030335;28;20389;-82
2021/08/17 09:05:22;;;;;;;0.77;0.60;;;30.10;73.60;;;;;;5030555;28;20041;-78
2021/08/17 09:07:48;;;;;;;2.25;1.67;;;30.40;72.60;;;;;;5030577;28;20025;-79
2021/08/17 09:10:17;;;;;;;0.60;0.60;;;30.60;72.30;;;;;;5030182;28;20041;-78
2021/08/17 09:12:57;;;;;;;0.70;0.70;;;30.80;70.60;;;;;;5030400;28;20022;-80
2021/08/17 09:15:31;;;;;;;0.40;0.40;;;31.00;70.90;;;;;;5030181;28;20417;-78
2021/08/17 09:17:58;;;;;;;0.57;0.55;;;31.00;70.50;;;;;;5012076;28;20036;-82
2021/08/17 09:20:37;;;;;;;1.58;1.25;;;31.00;69.80;;;;;;5011362;28;20086;-79
2021/08/17 09:23:26;;;;;;;0.95;0.77;;;31.30;70.70;;;;;;5011568;28;20140;-80
2021/08/17 09:25:54;;;;;;;0.20;0.20;;;31.40;69.50;;;;;;5030037;28;20096;-76
2021/08/17 09:28:33;;;;;;;0.57;0.57;;;31.70;68.70;;;;;;5012196;28;20116;-77
2021/08/17 09:31:01;;;;;;;0.40;0.40;;;31.80;68.40;;;;;;5030256;28;20032;-78
2021/08/17 09:33:39;;;;;;;0.50;0.50;;;32.00;68.00;;;;;;5028712;28;20120;-76
2021/08/17 09:36:08;;;;;;;1.05;0.70;;;32.00;66.70;;;;;;5028003;28;20104;-76
2021/08/17 09:38:34;;;;;;;0.50;0.50;;;32.00;65.40;;;;;;5017745;28;20420;-77
2021/08/17 09:41:17;;;;;;;0.85;0.82;;;32.10;64.60;;;;;;5011823;28;20372;-76
2021/08/17 09:44:04;;;;;;;1.55;1.02;;;32.20;64.70;;;;;;5029527;28;20115;-79
2021/08/17 09:46:40;;;;;;;0.73;0.43;;;32.40;64.50;;;;;;5029806;28;20021;-76
2021/08/17 09:49:25;;;;;;;3.20;1.90;;;32.60;63.80;;;;;;5030390;28;20032;-77
2021/08/17 09:51:51;;;;;;;7.00;0.80;;;32.50;62.60;;;;;;5029422;28;20033;-78
2021/08/17 09:54:22;;;;;;;4.80;2.55;;;32.80;63.10;;;;;;5029776;28;20350;-79
2021/08/17 09:57:03;;;;;;;7.47;1.77;;;32.70;61.60;;;;;;5011958;28;20478;-76
2021/08/17 09:59:30;;;;;;;0.63;0.60;;;32.60;61.90;;;;;;5029877;28;20028;-79
2021/08/17 10:01:57;;;;;;;6.35;1.20;;;32.70;62.00;;;;;;5028328;28;20017;-78
2021/08/17 10:04:24;;;;;;;1.48;1.13;;;32.60;62.40;;;;;;5028359;28;20379;-77
2021/08/17 10:06:55;;;;;;;2.08;1.02;;;32.90;62.10;;;;;;5028542;28;20104;-78
2021/08/17 10:09:23;;;;;;;1.35;1.00;;;33.30;61.40;;;;;;5010617;28;20033;-79
2021/08/17 10:11:48;;;;;;;1.15;0.60;;;33.40;59.30;;;;;;5029249;28;20042;-76
2021/08/17 10:14:15;;;;;;;4.35;1.60;;;33.40;59.70;;;;;;5032180;28;20040;-78
2021/08/17 10:16:42;;;;;;;3.65;0.88;;;33.30;58.80;;;;;;5032074;28;20079;-84
2021/08/17 10:19:12;;;;;;;1.65;1.15;;;33.00;59.10;;;;;;5014250;28;20083;-85
2021/08/17 10:21:42;;;;;;;0.82;0.77;;;33.40;59.00;;;;;;5032227;28;20044;-85
2021/08/17 10:24:27;;;;;;;0.22;0.22;;;33.50;58.50;;;;;;5031812;28;20030;-85
2021/08/17 10:27:19;;;;;;;1.05;0.90;;;33.80;58.50;;;;;;5030545;28;20022;-80
2021/08/17 10:30:07;;;;;;;0.93;0.60;;;34.20;58.20;;;;;;5033407;28;20080;-78
2021/08/17 10:32:48;;;;;;;0.80;0.80;;;34.30;56.90;;;;;;5033833;28;20040;-78
2021/08/17 10:35:26;;;;;;;0.20;0.20;;;34.40;57.10;;;;;;5015194;28;20038;-76
2021/08/17 10:38:12;;;;;;;0.93;0.82;;;34.50;57.80;;;;;;5027976;28;20375;-80
2021/08/17 10:40:50;;;;;;;0.77;0.77;;;34.70;57.00;;;;;;5002075;28;20121;-78
2021/08/17 10:43:45;;;;;;;1.35;0.98;;;34.80;56.80;;;;;;5029918;28;20055;-80
2021/08/17 10:46:13;;;;;;;1.40;0.70;;;35.10;57.60;;;;;;5024292;28;20033;-79
2021/08/17 10:48:48;;;;;;;0.63;0.57;;;34.80;57.50;;;;;;5031136;28;20017;-84
2021/08/17 10:51:21;;;;;;;0.57;0.57;;;34.80;57.20;;;;;;5012926;28;20044;-81
2021/08/17 10:54:02;;;;;;;0.15;0.15;;;34.60;57.00;;;;;;5030170;28;20369;-79
2021/08/17 10:56:30;;;;;;;0.57;0.25;;;34.50;57.30;;;;;;5030330;28;20025;-79
2021/08/17 10:58:57;;;;;;;4.28;0.73;;;34.70;56.90;;;;;;5012929;28;20025;-80
2021/08/17 11:01:34;;;;;;;0.45;0.45;;;35.00;57.30;;;;;;5036570;28;20436;-82
2021/08/17 11:04:10;;;;;;;0.35;0.30;;;35.00;56.80;;;;;;5018486;28;20029;-80
2021/08/17 11:06:49;;;;;;;0.60;0.60;;;35.10;56.70;;;;;;5013886;28;20033;-78
2021/08/17 11:09:17;;;;;;;1.10;0.80;;;35.30;57.50;;;;;;5031979;28;20029;-78
2021/08/17 11:11:47;;;;;;;0.20;0.20;;;35.70;55.70;;;;;;5028014;28;20540;-75
2021/08/17 11:14:14;;;;;;;0.40;0.40;;;35.80;55.50;;;;;;5031215;28;20179;-77
2021/08/17 11:16:52;;;;;;;1.30;0.85;;;35.60;55.60;;;;;;5031010;28;20033;-79
2021/08/17 11:19:20;;;;;;;0.60;0.60;;;35.50;55.60;;;;;;5028831;28;20112;-78
2021/08/17 11:21:58;;;;;;;2.00;1.42;;;35.60;55.20;;;;;;5031296;28;20029;-75
2021/08/17 11:24:27;;;;;;;3.45;0.93;;;36.00;55.50;;;;;;5031321;28;20025;-78
2021/08/17 11:26:53;;;;;;;0.55;0.45;;;36.30;54.20;;;;;;5031503;28;20017;-76
2021/08/17 11:29:48;;;;;;;0.85;0.70;;;36.40;53.80;;;;;;5031479;28;20022;-77
2021/08/17 11:32:24;;;;;;;0.55;0.55;;;36.30;54.10;;;;;;5018571;28;20580;-77
2021/08/17 11:34:50;;;;;;;1.85;1.08;;;36.10;53.00;;;;;;5032009;28;20359;-76
2021/08/17 11:37:16;;;;;;;0.90;0.60;;;36.20;52.60;;;;;;5031010;28;20538;-77
2021/08/17 11:39:51;;;;;;;0.73;0.52;;;36.50;51.90;;;;;;5031344;28;20032;-77
2021/08/17 11:42:23;;;;;;;0.30;0.30;;;36.70;51.80;;;;;;5025491;28;20018;-77
2021/08/17 11:45:15;;;;;;;0.65;0.60;;;36.50;50.40;;;;;;5012616;28;20132;-78
2021/08/17 11:47:43;;;;;;;0.77;0.77;;;36.50;49.70;;;;;;5021973;28;20033;-76
2021/08/17 11:50:14;;;;;;;0.68;0.68;;;36.40;50.80;;;;;;5030481;28;20060;-76
2021/08/17 11:52:41;;;;;;;0.65;0.60;;;36.20;50.80;;;;;;5029723;28;20053;-76
2021/08/17 11:55:08;;;;;;;0.65;0.65;;;36.30;50.50;;;;;;5030809;28;20072;-77
2021/08/17 11:57:37;;;;;;;0.38;0.22;;;36.30;49.70;;;;;;5029876;28;20079;-76
2021/08/17 12:00:17;;;;;;;0.35;0.32;;;36.50;50.80;;;;;;5030510;28;20032;-76
2021/08/17 12:02:46;;;;;;;0.47;0.40;;;36.80;49.80;;;;;;5029739;28;20115;-77
2021/08/17 12:05:14;;;;;;;2.58;1.38;;;36.80;50.20;;;;;;5030424;28;20102;-76
2021/08/17 12:07:42;;;;;;;2.10;0.98;;;36.90;49.50;;;;;;5030158;28;20034;-78
2021/08/17 12:10:08;;;;;;;1.55;1.33;;;36.60;49.30;;;;;;5012445;28;20501;-77
2021/08/17 12:12:57;;;;;;;1.30;1.10;;;36.70;49.50;;;;;;5029186;28;20052;-76
2021/08/17 12:15:38;;;;;;;1.23;1.13;;;36.80;49.70;;;;;;5011900;28;20071;-78
2021/08/17 12:18:12;;;;;;;1.55;0.88;;;37.20;49.30;;;;;;5029518;28;20428;-77
2021/08/17 12:21:04;;;;;;;3.25;0.80;;;37.00;48.10;;;;;;5026805;28;20108;-79
2021/08/17 12:23:43;;;;;;;0.60;0.60;;;37.50;48.80;;;;;;5027196;28;20398;-77
2021/08/17 12:26:14;;;;;;;1.13;1.00;;;37.90;48.10;;;;;;5012611;28;20033;-78
2021/08/17 12:28:42;;;;;;;0.85;0.55;;;38.00;46.80;;;;;;5030504;28;20013;-77
2021/08/17 12:31:11;;;;;;;0.88;0.65;;;37.80;47.40;;;;;;5031232;28;20022;-78
2021/08/17 12:33:50;;;;;;;2.40;1.17;;;37.40;47.30;;;;;;5047770;28;20029;-78
2021/08/17 12:36:48;;;;;;;1.17;1.02;;;37.70;47.10;;;;;;5034174;28;20670;-80
2021/08/17 12:39:23;;;;;;;0.47;0.45;;;37.60;46.30;;;;;;5037790;28;20024;-75
2021/08/17 12:42:00;;;;;;;1.02;0.75;;;38.30;47.00;;;;;;5044505;28;20480;-77
2021/08/17 12:44:36;;;;;;;1.02;0.93;;;38.50;47.00;;;;;;5048158;28;20036;-78
2021/08/17 12:47:09;;;;;;;19.27;4.00;;;38.60;46.00;;;;;;5050294;28;20017;-76
2021/08/17 12:49:44;;;;;;;0.52;0.52;;;38.30;46.00;;;;;;5050821;28;20393;-75
2021/08/17 12:52:27;;;;;;;2.28;1.58;;;38.40;45.80;;;;;;5050549;28;20033;-76
2021/08/17 12:54:59;;;;;;;3.03;2.35;;;38.20;45.60;;;;;;5050715;28;20044;-75